Time;durP1;ratioP1;P1;durP2;ratioP2;P2;SDS_P1;SDS_P2;PMS_P1;PMS_P2;Temp;Humidity;BMP_temperature;BMP_pressure;BME280_temperature;BME280_humidity;BME280_pressure;Samples;Min_cycle;Max_cycle;Signal;HPM_P1;HPM_P2
2022/04/02 00:01:43;;;;;;;;;11.00;6.00;;;;;4.24;58.90;100823.34;4975172;28;45493;-54
2022/04/02 00:04:09;;;;;;;;;13.50;8.50;;;;;4.25;59.64;100827.72;4973587;28;45242;-56
2022/04/02 00:06:35;;;;;;;;;9.50;9.50;;;;;4.15;58.88;100820.03;4972426;28;45315;-56
2022/04/02 00:09:01;;;;;;;;;7.25;7.25;;;;;4.22;59.04;100833.06;4987698;28;45369;-54
2022/04/02 00:11:27;;;;;;;;;11.50;10.00;;;;;4.19;58.68;100828.75;4972998;28;45200;-52
2022/04/02 00:13:52;;;;;;;;;11.50;10.25;;;;;4.21;58.57;100836.59;4972971;28;45921;-58
2022/04/02 00:16:17;;;;;;;;;11.00;8.50;;;;;4.23;58.25;100829.53;4973674;28;45794;-53
2022/04/02 00:18:43;;;;;;;;;10.25;7.50;;;;;4.24;58.23;100841.78;4972200;28;46139;-53
2022/04/02 00:21:09;;;;;;;;;8.75;7.50;;;;;4.28;57.72;100832.88;4972040;28;45583;-52
2022/04/02 00:23:40;;;;;;;;;7.00;5.50;;;;;4.13;57.16;100829.75;4971307;28;45462;-55
2022/04/02 00:26:08;;;;;;;;;11.00;7.00;;;;;4.15;57.43;100838.47;4973237;28;45227;-55
2022/04/02 00:28:35;;;;;;;;;12.25;8.50;;;;;4.10;56.90;100836.88;4972813;28;46767;-55
2022/04/02 00:31:01;;;;;;;;;8.25;6.25;;;;;4.18;57.38;100826.16;4970942;28;45390;-52
2022/04/02 00:33:26;;;;;;;;;9.50;7.25;;;;;4.21;56.59;100826.06;4971957;28;45422;-54
2022/04/02 00:35:52;;;;;;;;;10.75;10.50;;;;;4.22;56.64;100830.44;4973105;28;45331;-53
2022/04/02 00:38:17;;;;;;;;;10.75;5.00;;;;;4.15;56.30;100814.78;4978466;28;46007;-54
2022/04/02 00:40:43;;;;;;;;;5.00;5.00;;;;;4.26;56.03;100830.28;4972496;28;45299;-62
2022/04/02 00:43:31;;;;;;;;;7.75;4.00;;;;;4.23;54.97;100830.38;4973307;28;45406;-54
2022/04/02 00:46:04;;;;;;;;;9.50;7.00;;;;;4.26;54.96;100835.56;4972804;28;45575;-53
2022/04/02 00:48:30;;;;;;;;;7.00;7.00;;;;;4.27;54.91;100820.63;4973511;28;45573;-55
2022/04/02 00:50:57;;;;;;;;;11.25;6.00;;;;;4.22;53.96;100825.16;4975850;28;45401;-56
2022/04/02 00:53:25;;;;;;;;;5.00;4.00;;;;;4.23;54.65;100829.53;4985160;28;45539;-55
2022/04/02 00:55:51;;;;;;;;;6.50;4.50;;;;;4.13;54.03;100821.84;4966169;27;46022;-55
2022/04/02 00:58:17;;;;;;;;;5.00;1.00;;;;;4.13;53.88;100816.59;4972171;28;46088;-57
2022/04/02 01:00:43;;;;;;;;;8.00;4.00;;;;;4.08;53.25;100818.50;4978396;27;45393;-54
2022/04/02 01:03:11;;;;;;;;;4.75;4.25;;;;;4.08;53.87;100826.38;4975718;28;45353;-54
2022/04/02 01:05:38;;;;;;;;;3.50;2.00;;;;;4.07;53.39;100815.91;4975999;28;45583;-57
2022/04/02 01:08:05;;;;;;;;;8.50;3.00;;;;;4.06;54.65;100811.53;4975906;28;45423;-56
2022/04/02 01:10:35;;;;;;;;;7.75;5.25;;;;;4.05;53.53;100821.22;4975614;28;45264;-52
2022/04/02 01:13:02;;;;;;;;;5.50;4.00;;;;;3.99;53.86;100826.59;4974786;28;45228;-55
2022/04/02 01:15:28;;;;;;;;;9.50;7.25;;;;;3.78;53.26;100817.50;4975360;28;45557;-55
2022/04/02 01:17:54;;;;;;;;;4.50;4.50;;;;;3.79;53.72;100821.00;4974473;28;47521;-54
2022/04/02 01:20:22;;;;;;;;;4.50;4.50;;;;;3.82;53.56;100819.16;4975411;28;45436;-52
2022/04/02 01:22:48;;;;;;;;;4.75;4.75;;;;;3.81;53.82;100816.56;4975995;28;45362;-54
2022/04/02 01:25:14;;;;;;;;;7.00;4.75;;;;;3.84;53.76;100824.38;4990227;28;45318;-57
2022/04/02 01:27:40;;;;;;;;;4.25;4.25;;;;;3.76;53.92;100815.78;4977891;28;46010;-56
2022/04/02 01:30:06;;;;;;;;;8.00;4.00;;;;;3.74;54.10;100813.19;4973655;28;45497;-56
2022/04/02 01:32:32;;;;;;;;;2.00;2.00;;;;;3.73;53.69;100829.03;4980952;28;45391;-50
2022/04/02 01:34:58;;;;;;;;;4.25;4.25;;;;;3.68;53.91;100833.53;4973532;28;45594;-53
2022/04/02 01:37:23;;;;;;;;;1.00;1.00;;;;;3.62;53.93;100815.25;4975239;28;45395;-55
2022/04/02 01:39:49;;;;;;;;;7.50;5.50;;;;;3.68;54.05;100834.41;4975712;28;45433;-57
2022/04/02 01:42:17;;;;;;;;;4.00;4.00;;;;;3.64;53.98;100834.50;4975017;28;45388;-53
2022/04/02 01:44:49;;;;;;;;;2.00;2.00;;;;;3.64;53.91;100840.63;4974263;28;45323;-55
2022/04/02 01:47:15;;;;;;;;;4.00;4.00;;;;;3.51;53.96;100831.28;4973129;28;46139;-59
2022/04/02 01:49:40;;;;;;;;;3.00;3.00;;;;;3.49;54.22;100831.31;4974836;28;45349;-55
2022/04/02 01:52:06;;;;;;;;;4.00;4.00;;;;;3.53;54.30;100829.50;4978615;28;45256;-52
2022/04/02 01:54:31;;;;;;;;;4.50;2.00;;;;;3.66;54.43;100843.25;4977476;27;45363;-55
2022/04/02 01:56:57;;;;;;;;;7.25;5.00;;;;;3.50;53.71;100834.81;4973637;28;45465;-53
2022/04/02 01:59:22;;;;;;;;;10.00;7.50;;;;;3.41;53.82;100838.53;4974550;28;45692;-53
2022/04/02 02:01:47;;;;;;;;;5.75;2.25;;;;;3.42;54.58;100842.03;4970777;28;45719;-53
2022/04/02 02:04:13;;;;;;;;;7.00;7.00;;;;;3.52;54.31;100849.69;4975255;28;46285;-55
2022/04/02 02:06:39;;;;;;;;;2.25;2.25;;;;;3.51;54.05;100847.94;4990272;28;45496;-53
2022/04/02 02:09:05;;;;;;;;;7.00;4.25;;;;;3.43;53.59;100851.66;4975152;28;45372;-55
2022/04/02 02:11:31;;;;;;;;;5.75;5.75;;;;;3.36;54.53;100848.28;4975613;28;45321;-56
2022/04/02 02:13:56;;;;;;;;;4.25;4.25;;;;;3.41;54.33;100871.84;4993231;28;45521;-56
2022/04/02 02:16:22;;;;;;;;;2.50;2.50;;;;;3.46;54.85;100868.22;4972283;28;45389;-55
2022/04/02 02:18:47;;;;;;;;;4.00;2.25;;;;;3.52;55.03;100865.47;4971076;28;45449;-54
2022/04/02 02:21:13;;;;;;;;;3.50;3.00;;;;;3.50;54.48;100858.47;4975184;28;45570;-53
2022/04/02 02:23:39;;;;;;;;;4.25;4.25;;;;;3.40;54.60;100855.22;4975235;28;45397;-56
2022/04/02 02:26:05;;;;;;;;;4.50;4.00;;;;;3.44;55.11;100854.25;4974595;27;45791;-52
2022/04/02 02:28:30;;;;;;;;;5.25;2.75;;;;;3.43;54.93;100863.03;4972589;27;45535;-55
2022/04/02 02:30:57;;;;;;;;;8.75;6.75;;;;;3.35;55.03;100858.84;4972520;28;45383;-56
2022/04/02 02:36:07;;;;;;;;;4.00;4.00;;;;;3.30;55.51;100856.31;4974392;28;45488;-57
2022/04/02 02:38:32;;;;;;;;;6.00;6.00;;;;;3.32;55.73;100867.66;4972994;28;45312;-54
2022/04/02 02:40:57;;;;;;;;;7.50;4.25;;;;;3.30;55.42;100853.69;4974040;28;45424;-53
2022/04/02 02:43:23;;;;;;;;;5.50;1.75;;;;;3.30;55.56;100861.56;4979282;28;45219;-52
2022/04/02 02:45:50;;;;;;;;;4.00;4.00;;;;;3.23;55.57;100865.22;4974619;28;46322;-52
2022/04/02 02:48:15;;;;;;;;;5.25;5.25;;;;;3.13;55.58;100867.19;4985968;28;45346;-53
2022/04/02 02:50:42;;;;;;;;;5.00;5.00;;;;;3.16;56.00;100874.16;4974481;28;45621;-53
2022/04/02 02:53:08;;;;;;;;;9.00;5.25;;;;;3.16;55.92;100876.78;4974013;28;45524;-55
2022/04/02 02:55:33;;;;;;;;;7.75;7.25;;;;;3.18;55.64;100882.84;4973577;28;45551;-54
2022/04/02 02:57:59;;;;;;;;;8.00;7.00;;;;;3.18;56.05;100877.59;4966357;28;45493;-51
2022/04/02 03:00:24;;;;;;;;;6.00;5.25;;;;;3.13;56.03;100868.97;4978130;27;45939;-53
2022/04/02 03:02:50;;;;;;;;;7.00;7.00;;;;;3.19;56.14;100881.97;4971849;28;45735;-53
2022/04/02 03:05:17;;;;;;;;;8.75;6.25;;;;;3.20;56.12;100883.69;4973041;28;47862;-52
2022/04/02 03:07:48;;;;;;;;;5.50;5.50;;;;;3.21;56.92;100888.03;4965094;28;45561;-55
2022/04/02 03:10:28;;;;;;;;;6.00;6.00;;;;;3.13;56.50;100887.34;4975242;27;45487;-54
2022/04/02 03:12:55;;;;;;;;;10.00;6.00;;;;;3.14;56.59;100886.47;4974560;28;45200;-56
2022/04/02 03:15:22;;;;;;;;;6.75;6.75;;;;;3.05;56.59;100902.41;4974013;28;45322;-52
2022/04/02 03:17:49;;;;;;;;;13.00;6.50;;;;;3.03;56.81;100891.94;4954735;28;45360;-53
2022/04/02 03:20:17;;;;;;;;;11.50;8.25;;;;;3.05;57.02;100891.91;4953354;28;45392;-56
2022/04/02 03:22:45;;;;;;;;;8.75;6.00;;;;;2.90;57.54;100883.44;4969087;28;45462;-58
2022/04/02 03:25:21;;;;;;;;;5.25;5.25;;;;;2.90;57.84;100888.69;4972770;28;45380;-54
2022/04/02 03:27:47;;;;;;;;;8.25;8.25;;;;;2.92;56.99;100891.28;4973668;28;45715;-54
2022/04/02 03:30:15;;;;;;;;;9.50;5.25;;;;;2.81;57.54;100899.34;4973439;28;45477;-56
2022/04/02 03:32:41;;;;;;;;;8.25;8.25;;;;;2.80;57.40;100892.38;4973084;28;45627;-53
2022/04/02 03:35:08;;;;;;;;;7.50;4.00;;;;;2.80;57.62;100896.75;4986232;28;46330;-55
2022/04/02 03:37:37;;;;;;;;;6.50;6.50;;;;;2.77;57.58;100900.31;4973521;28;45319;-53
2022/04/02 03:40:08;;;;;;;;;6.00;6.00;;;;;2.77;58.01;100894.22;4967082;27;45541;-53
2022/04/02 03:42:37;;;;;;;;;7.00;7.00;;;;;2.79;57.66;100901.16;4960422;28;45596;-51
2022/04/02 03:45:07;;;;;;;;;8.25;8.25;;;;;2.81;58.20;100891.47;4972189;28;47611;-49
2022/04/02 03:47:33;;;;;;;;;6.50;6.50;;;;;2.79;57.78;100906.41;4974082;28;45371;-54
2022/04/02 03:49:58;;;;;;;;;9.00;7.00;;;;;2.85;58.19;100905.41;4973888;28;45173;-53
2022/04/02 03:52:24;;;;;;;;;5.75;5.75;;;;;2.85;58.01;100895.75;4982211;27;45387;-57
2022/04/02 03:54:50;;;;;;;;;9.50;6.75;;;;;2.78;57.75;100898.56;4973361;28;48017;-54
2022/04/02 03:57:15;;;;;;;;;8.50;7.00;;;;;2.80;58.41;100902.03;4973294;27;45464;-54
2022/04/02 03:59:42;;;;;;;;;8.75;8.75;;;;;2.80;57.92;100896.75;4974120;28;45268;-57
2022/04/02 04:02:08;;;;;;;;;7.00;7.00;;;;;2.83;57.69;100905.44;4972592;28;44810;-55
2022/04/02 04:04:36;;;;;;;;;7.00;6.00;;;;;2.84;57.99;100908.94;4973475;28;45932;-57
2022/04/02 04:07:01;;;;;;;;;6.75;6.25;;;;;2.86;57.83;100908.00;4973309;28;45403;-56
2022/04/02 04:09:27;;;;;;;;;9.25;7.75;;;;;2.79;58.18;100889.78;4973631;28;45406;-56
2022/04/02 04:11:54;;;;;;;;;7.25;7.25;;;;;2.87;58.20;100908.91;4991850;28;45294;-51
2022/04/02 04:14:20;;;;;;;;;11.25;6.00;;;;;2.89;58.20;100913.22;4975847;28;48055;-55
2022/04/02 04:16:46;;;;;;;;;7.00;7.00;;;;;2.88;58.25;100911.50;4974032;28;45252;-55
2022/04/02 04:19:13;;;;;;;;;6.50;6.50;;;;;2.81;58.15;100906.38;4982628;28;45386;-53
2022/04/02 04:21:40;;;;;;;;;7.50;7.00;;;;;2.72;58.45;100906.53;4975213;27;45521;-54
2022/04/02 04:24:06;;;;;;;;;10.00;7.75;;;;;2.69;58.34;100920.59;4975857;28;45452;-53
2022/04/02 04:26:32;;;;;;;;;7.00;7.00;;;;;2.78;58.81;100925.69;4983533;28;45398;-55
2022/04/02 04:28:58;;;;;;;;;6.00;6.00;;;;;2.80;58.63;100926.53;4983146;28;45377;-53
2022/04/02 04:31:24;;;;;;;;;9.75;7.00;;;;;2.83;58.36;100929.09;4975104;28;45567;-55
2022/04/02 04:33:50;;;;;;;;;6.50;6.00;;;;;2.86;58.24;100928.16;4969132;28;46086;-56
2022/04/02 04:36:18;;;;;;;;;12.50;7.75;;;;;2.85;58.24;100924.66;4973061;28;45390;-54
2022/04/02 04:38:45;;;;;;;;;9.25;7.75;;;;;2.82;58.30;100937.00;4975948;28;45409;-54
2022/04/02 04:41:11;;;;;;;;;3.50;3.50;;;;;2.80;58.25;100934.41;4976789;28;46001;-54
2022/04/02 04:43:37;;;;;;;;;8.75;3.75;;;;;2.78;58.56;100938.81;4975715;28;45443;-53
2022/04/02 04:46:03;;;;;;;;;12.00;9.00;;;;;2.82;58.61;100950.13;4974160;28;45476;-50
2022/04/02 04:48:29;;;;;;;;;6.00;5.75;;;;;2.82;58.45;100943.13;4975937;28;45239;-53
2022/04/02 04:50:55;;;;;;;;;12.00;9.75;;;;;2.83;58.48;100944.84;4974764;28;45212;-53
2022/04/02 04:53:20;;;;;;;;;15.75;9.75;;;;;2.82;58.01;100953.63;4975546;28;46191;-53
2022/04/02 04:55:46;;;;;;;;;11.75;9.00;;;;;2.83;58.21;100960.59;4975699;28;45346;-53
2022/04/02 04:58:11;;;;;;;;;8.50;7.00;;;;;2.82;58.09;100958.88;4975291;28;45508;-52
2022/04/02 05:00:37;;;;;;;;;9.50;7.00;;;;;2.77;58.40;100960.72;4976500;28;45291;-51
2022/04/02 05:03:03;;;;;;;;;9.75;8.75;;;;;2.84;58.50;100957.09;4975643;28;46085;-54
2022/04/02 05:05:31;;;;;;;;;6.25;4.00;;;;;2.84;58.03;100964.09;4975691;27;45270;-56
2022/04/02 05:07:58;;;;;;;;;8.25;7.50;;;;;2.86;58.23;100967.56;4959111;28;45361;-51
2022/04/02 05:10:24;;;;;;;;;11.25;7.25;;;;;2.79;58.32;100974.69;4959021;28;45566;-54
2022/04/02 05:12:50;;;;;;;;;14.75;10.25;;;;;2.82;58.02;100969.38;4975345;28;45337;-53
2022/04/02 05:15:16;;;;;;;;;14.75;10.75;;;;;2.75;57.79;100977.41;4975191;27;45503;-55
2022/04/02 05:17:42;;;;;;;;;8.25;8.25;;;;;2.74;58.17;100976.56;4980080;28;45274;-51
2022/04/02 05:20:10;;;;;;;;;8.25;8.25;;;;;2.83;57.80;100980.75;4974686;28;45484;-54
2022/04/02 05:22:37;;;;;;;;;12.75;12.75;;;;;2.76;57.93;100980.00;4974752;28;45504;-54
2022/04/02 05:25:03;;;;;;;;;10.75;10.00;;;;;2.76;58.35;100990.53;4979140;28;45947;-52
2022/04/02 05:27:28;;;;;;;;;7.00;7.00;;;;;2.42;57.91;100934.22;4994914;27;45268;-53
2022/04/02 05:29:54;;;;;;;;;7.00;6.50;;;;;2.73;58.06;100976.56;4983274;28;45207;-55
2022/04/02 05:32:20;;;;;;;;;10.75;10.00;;;;;2.87;58.32;100988.56;4975073;28;45341;-51
2022/04/02 05:34:46;;;;;;;;;14.25;14.25;;;;;2.77;58.17;100967.75;4971795;28;45512;-53
2022/04/02 05:37:12;;;;;;;;;14.75;9.50;;;;;2.76;57.46;100992.28;4977436;28;45526;-58
2022/04/02 05:39:37;;;;;;;;;9.50;9.50;;;;;2.80;57.86;100988.69;4977885;28;45441;-54
2022/04/02 05:42:05;;;;;;;;;10.25;10.25;;;;;2.79;58.00;100982.56;4974237;28;45494;-52
2022/04/02 05:44:31;;;;;;;;;7.00;7.00;;;;;2.68;57.55;100966.13;4975176;28;45318;-53
2022/04/02 05:46:57;;;;;;;;;13.00;11.50;;;;;2.86;58.42;101001.69;4973584;28;45516;-55
2022/04/02 05:49:22;;;;;;;;;13.75;11.00;;;;;2.80;57.84;101012.34;4989073;28;46195;-54
2022/04/02 05:51:48;;;;;;;;;12.25;9.50;;;;;2.76;58.07;100998.41;4977951;27;46362;-54
2022/04/02 05:54:14;;;;;;;;;10.25;9.00;;;;;2.69;57.85;100986.25;4974938;28;45243;-55
2022/04/02 05:56:40;;;;;;;;;11.50;7.00;;;;;2.81;58.27;101003.56;4973867;28;45508;-55
2022/04/02 05:59:07;;;;;;;;;11.25;9.50;;;;;2.87;57.53;101020.09;4975159;28;45526;-56
2022/04/02 06:01:34;;;;;;;;;15.00;10.00;;;;;2.89;57.84;101015.69;4981770;28;45373;-53
2022/04/02 06:04:00;;;;;;;;;15.50;6.25;;;;;2.87;57.38;101012.22;4975524;28;45453;-55
2022/04/02 06:06:25;;;;;;;;;7.50;7.50;;;;;2.85;57.37;101005.22;4977203;28;45449;-53
2022/04/02 06:08:51;;;;;;;;;8.00;6.50;;;;;2.93;57.62;101024.34;5046581;27;45497;-53
2022/04/02 06:11:16;;;;;;;;;5.50;3.75;;;;;2.88;57.91;101016.56;5008205;27;46101;-52
2022/04/02 06:13:42;;;;;;;;;9.25;7.75;;;;;2.98;57.44;101027.75;4989896;27;45383;-55
2022/04/02 06:16:08;;;;;;;;;7.75;7.75;;;;;2.94;57.79;101033.97;4973055;28;45546;-53
2022/04/02 06:18:33;;;;;;;;;10.50;8.25;;;;;2.84;57.59;101028.00;4957000;28;45786;-56
2022/04/02 06:21:03;;;;;;;;;8.50;8.50;;;;;2.87;58.29;101032.38;4959333;28;45339;-54
2022/04/02 06:23:29;;;;;;;;;6.25;5.25;;;;;2.95;58.05;101035.69;4996669;28;45564;-53
2022/04/02 06:25:54;;;;;;;;;10.50;8.50;;;;;3.01;57.45;101050.50;5014666;28;45294;-53
2022/04/02 06:28:20;;;;;;;;;9.75;7.25;;;;;3.12;57.74;101044.13;4997455;28;45427;-54
2022/04/02 06:30:45;;;;;;;;;9.50;7.00;;;;;3.27;57.40;101044.78;4994348;28;45405;-52
2022/04/02 06:33:11;;;;;;;;;7.00;7.00;;;;;3.28;57.42;101052.63;4977356;28;45329;-54
2022/04/02 06:35:36;;;;;;;;;7.00;7.00;;;;;3.27;57.50;101045.66;4960204;28;45496;-56
2022/04/02 06:38:02;;;;;;;;;10.00;7.00;;;;;3.12;57.52;101023.13;4960784;28;45592;-54
2022/04/02 06:40:27;;;;;;;;;7.75;7.75;;;;;3.30;57.89;101056.09;4972244;27;46099;-52
2022/04/02 06:42:53;;;;;;;;;5.25;5.25;;;;;3.30;57.43;101050.84;4967093;27;45573;-52
2022/04/02 06:45:18;;;;;;;;;5.25;5.25;;;;;3.30;57.61;101048.22;4966541;28;45422;-53
2022/04/02 06:47:44;;;;;;;;;11.50;8.25;;;;;3.42;57.60;101065.50;4962507;28;45698;-49
2022/04/02 06:50:13;;;;;;;;;7.00;7.00;;;;;3.44;57.28;101069.84;4971054;28;45303;-54
2022/04/02 06:52:39;;;;;;;;;8.00;6.50;;;;;3.44;57.20;101071.59;4999446;28;45492;-55
2022/04/02 06:55:08;;;;;;;;;13.25;12.50;;;;;3.55;57.30;101067.88;4973117;28;45528;-55
2022/04/02 06:57:40;;;;;;;;;13.75;12.75;;;;;3.64;57.12;101077.31;4974097;28;45212;-57
2022/04/02 07:00:07;;;;;;;;;14.50;8.50;;;;;3.73;57.03;101084.19;5016617;28;46162;-56
2022/04/02 07:02:32;;;;;;;;;5.00;4.50;;;;;3.79;56.46;101071.78;5029667;27;45439;-55
2022/04/02 07:04:58;;;;;;;;;9.00;6.00;;;;;3.79;56.48;101070.91;5044962;28;45345;-56
2022/04/02 07:07:23;;;;;;;;;4.50;4.50;;;;;3.61;56.09;101079.16;5009940;28;45573;-56
2022/04/02 07:09:49;;;;;;;;;11.00;7.00;;;;;3.52;57.10;101078.47;4956304;28;46038;-55
2022/04/02 07:12:15;;;;;;;;;8.00;6.00;;;;;3.61;56.60;101087.06;4962373;28;45387;-58
2022/04/02 07:14:40;;;;;;;;;7.00;4.50;;;;;3.72;56.33;101090.34;4971337;28;45457;-54
2022/04/02 07:17:07;;;;;;;;;7.25;5.50;;;;;3.69;56.12;101069.38;4973031;28;45422;-54
2022/04/02 07:19:34;;;;;;;;;7.75;5.00;;;;;3.75;55.90;101074.47;4971347;28;47154;-54
2022/04/02 07:22:00;;;;;;;;;6.00;4.75;;;;;3.92;55.65;101088.19;4984515;28;47447;-52
2022/04/02 07:24:26;;;;;;;;;8.00;8.00;;;;;4.01;55.52;101087.09;5065995;28;45451;-54
2022/04/02 07:26:54;;;;;;;;;6.00;3.00;;;;;3.87;54.65;101095.28;5031294;28;45482;-54
2022/04/02 07:29:19;;;;;;;;;7.00;4.50;;;;;3.86;55.06;101088.28;4988852;27;45409;-54
2022/04/02 07:31:45;;;;;;;;;9.50;8.00;;;;;3.79;54.25;101098.09;5041017;27;45458;-54
2022/04/02 07:34:12;;;;;;;;;8.50;4.50;;;;;3.87;54.67;101107.56;5047364;27;45601;-56
2022/04/02 07:36:41;;;;;;;;;7.50;7.50;;;;;3.95;54.44;101103.03;5018638;27;45488;-52
2022/04/02 07:39:25;;;;;;;;;7.25;5.00;;;;;3.90;54.74;101084.69;4955632;28;45485;-53
2022/04/02 07:42:18;;;;;;;;;6.50;6.50;;;;;4.12;54.20;101101.78;4971496;28;45463;-55
2022/04/02 07:45:03;;;;;;;;;6.00;4.25;;;;;4.15;54.22;101114.00;4972461;28;45839;-53
2022/04/02 07:47:35;;;;;;;;;5.00;5.00;;;;;4.11;52.91;101105.31;4970785;28;45495;-55
2022/04/02 07:50:08;;;;;;;;;12.25;8.00;;;;;4.16;53.45;101107.81;4982409;28;46370;-57
2022/04/02 07:52:36;;;;;;;;;6.50;5.00;;;;;4.22;53.17;101112.13;5037382;28;45645;-56
2022/04/02 07:55:10;;;;;;;;;6.50;6.50;;;;;4.21;53.38;101115.66;4964711;28;45376;-54
2022/04/02 07:57:47;;;;;;;;;11.00;7.00;;;;;4.15;53.72;101124.53;4975416;28;45597;-52
2022/04/02 08:00:17;;;;;;;;;6.50;6.50;;;;;4.16;53.63;101128.88;4975002;28;45375;-53
2022/04/02 08:02:45;;;;;;;;;5.00;5.00;;;;;4.18;54.49;101126.25;4966988;27;45273;-51
2022/04/02 08:05:18;;;;;;;;;5.75;5.00;;;;;4.21;53.95;101123.53;4957692;28;45513;-52
2022/04/02 08:07:57;;;;;;;;;10.50;7.00;;;;;4.36;54.09;101128.47;4967243;28;45417;-53
2022/04/02 08:10:25;;;;;;;;;9.50;7.50;;;;;4.47;53.60;101115.94;4967072;28;45993;-51
2022/04/02 08:12:52;;;;;;;;;3.00;3.00;;;;;4.51;52.83;101124.63;4988313;28;45470;-52
2022/04/02 08:15:20;;;;;;;;;8.00;6.50;;;;;4.43;52.92;101114.28;4976885;28;45492;-53
2022/04/02 08:17:54;;;;;;;;;7.50;6.00;;;;;4.47;51.47;101133.50;4982479;28;45165;-54
2022/04/02 08:20:22;;;;;;;;;6.00;4.00;;;;;4.57;51.94;101128.00;4980375;28;45439;-53
2022/04/02 08:22:48;;;;;;;;;4.00;1.00;;;;;4.52;49.58;101132.50;4988772;28;46173;-56
2022/04/02 08:25:15;;;;;;;;;3.00;3.00;;;;;4.60;49.44;101130.56;4976441;28;45271;-52
2022/04/02 08:27:46;;;;;;;;;1.75;1.75;;;;;4.71;48.95;101135.59;4967965;28;45362;-50
2022/04/02 08:30:18;;;;;;;;;7.25;5.00;;;;;4.74;48.86;101141.66;4959726;28;46485;-53
2022/04/02 08:33:01;;;;;;;;;8.00;5.00;;;;;4.81;48.92;101138.84;4959045;28;45434;-52
2022/04/02 08:35:38;;;;;;;;;5.75;5.00;;;;;4.85;49.14;101135.25;4975157;27;45392;-54
2022/04/02 08:38:30;;;;;;;;;7.00;4.75;;;;;4.96;48.48;101138.50;4976965;28;45486;-54
2022/04/02 08:41:34;;;;;;;;;4.00;4.00;;;;;5.03;47.53;101140.06;4971324;28;45574;-53
2022/04/02 08:44:24;;;;;;;;;6.25;6.00;;;;;5.15;47.12;101133.63;4953478;28;45508;-54
2022/04/02 08:47:25;;;;;;;;;2.00;0.00;;;;;5.18;47.34;101144.97;4975150;28;45377;-56
2022/04/02 08:50:10;;;;;;;;;5.00;4.00;;;;;5.45;47.73;101142.53;4957056;28;45357;-53
2022/04/02 08:52:52;;;;;;;;;4.00;2.00;;;;;5.71;46.03;101142.69;4968730;28;45434;-55
2022/04/02 08:55:20;;;;;;;;;7.00;5.00;;;;;5.75;45.37;101114.47;4966799;28;45470;-54
2022/04/02 08:58:01;;;;;;;;;9.00;7.00;;;;;6.16;46.60;101150.28;4965161;28;45520;-55
2022/04/02 09:00:27;;;;;;;;;7.75;4.00;;;;;6.41;45.37;101137.22;4970553;28;45607;-54
2022/04/02 09:02:58;;;;;;;;;5.00;5.00;;;;;6.62;45.32;101151.53;4982390;28;45321;-55
2022/04/02 09:06:06;;;;;;;;;3.75;2.00;;;;;6.86;43.54;101149.91;4995875;27;45273;-50
2022/04/02 09:08:38;;;;;;;;;6.50;6.25;;;;;6.96;43.20;101146.06;4969414;28;45445;-53
2022/04/02 09:11:24;;;;;;;;;8.00;4.75;;;;;7.07;43.22;101121.00;4974559;28;45507;-54
2022/04/02 09:14:18;;;;;;;;;8.00;5.00;;;;;7.56;42.98;101137.88;4975168;28;45675;-53
2022/04/02 09:17:02;;;;;;;;;2.00;2.00;;;;;7.78;41.81;101137.09;4974779;27;45434;-56
2022/04/02 09:19:43;;;;;;;;;7.50;5.00;;;;;8.06;42.75;101132.50;4978446;28;45297;-55
2022/04/02 09:22:40;;;;;;;;;6.50;5.25;;;;;8.07;41.11;101144.84;4971038;28;46596;-56
2022/04/02 09:25:18;;;;;;;;;8.00;5.75;;;;;8.36;41.16;101143.81;4967272;28;47048;-59
2022/04/02 09:27:49;;;;;;;;;3.75;3.75;;;;;8.33;39.19;101145.66;4970721;28;45555;-58
2022/04/02 09:30:41;;;;;;;;;6.50;4.75;;;;;8.41;39.40;101147.13;4994535;28;45415;-60
2022/04/02 09:33:54;;;;;;;;;6.00;4.50;;;;;8.39;38.50;101142.81;4990437;28;45435;-58
2022/04/02 09:37:00;;;;;;;;;7.50;7.50;;;;;8.58;37.68;101146.47;4983757;28;46449;-54
2022/04/02 09:39:43;;;;;;;;;8.50;6.00;;;;;8.66;37.14;101147.03;4971242;28;45499;-56
2022/04/02 09:42:29;;;;;;;;;7.75;3.50;;;;;8.86;37.20;101141.81;4971189;28;45504;-55
2022/04/02 09:45:13;;;;;;;;;5.25;4.00;;;;;9.12;36.06;101150.53;4989248;28;45201;-56
2022/04/02 09:47:51;;;;;;;;;9.00;5.75;;;;;9.30;36.48;101141.78;5010533;28;47873;-52
2022/04/02 09:50:19;;;;;;;;;6.50;5.00;;;;;9.30;36.22;101149.75;4996076;28;45341;-50
2022/04/02 09:52:56;;;;;;;;;4.00;4.00;;;;;9.13;37.69;101150.44;5009244;28;46477;-56
2022/04/02 09:55:44;;;;;;;;;5.00;5.00;;;;;9.08;37.45;101140.94;5031735;27;45468;-52
2022/04/02 09:58:24;;;;;;;;;6.50;6.00;;;;;8.80;35.75;101143.84;5015950;27;47101;-56
2022/04/02 10:01:13;;;;;;;;;8.25;5.75;;;;;8.34;36.29;101144.75;4995078;28;45338;-55
2022/04/02 10:04:01;;;;;;;;;4.00;4.00;;;;;8.15;36.41;101158.69;4975831;28;45850;-53
2022/04/02 10:06:27;;;;;;;;;5.50;4.75;;;;;8.08;36.17;101151.03;4981064;28;47393;-54
2022/04/02 10:09:02;;;;;;;;;5.75;2.00;;;;;8.06;36.85;101158.13;4985396;28;46174;-57
2022/04/02 10:11:30;;;;;;;;;4.00;4.00;;;;;8.13;35.78;101160.53;5025250;27;45499;-53
2022/04/02 10:14:00;;;;;;;;;7.75;5.25;;;;;8.08;35.06;101151.88;4967096;28;45351;-59
2022/04/02 10:16:27;;;;;;;;;5.25;5.25;;;;;8.08;35.25;101151.88;4986430;28;45493;-56
2022/04/02 10:18:55;;;;;;;;;5.00;5.00;;;;;7.99;34.96;101147.78;4974142;28;47971;-55
2022/04/02 10:21:21;;;;;;;;;6.00;5.50;;;;;7.89;35.41;101146.38;4975345;28;45423;-58
2022/04/02 10:23:54;;;;;;;;;5.75;5.75;;;;;8.05;36.39;101165.22;4972550;28;45529;-57
2022/04/02 10:26:23;;;;;;;;;5.50;5.00;;;;;8.11;36.72;101151.78;4976476;28;45520;-55
2022/04/02 10:28:55;;;;;;;;;4.50;4.25;;;;;8.12;35.93;101161.44;5070887;27;45452;-56
2022/04/02 10:31:36;;;;;;;;;2.75;1.00;;;;;7.97;35.26;101152.28;5077540;27;45353;-58
2022/04/02 10:34:30;;;;;;;;;4.50;4.50;;;;;7.83;35.86;101159.00;5047255;27;45457;-54
2022/04/02 10:37:05;;;;;;;;;4.50;4.00;;;;;7.79;35.80;101154.69;4956035;28;45239;-53
2022/04/02 10:39:34;;;;;;;;;5.25;4.25;;;;;7.75;34.98;101145.16;4956266;28;45554;-54
2022/04/02 10:42:05;;;;;;;;;5.00;4.75;;;;;7.96;35.74;101141.75;4967071;28;45437;-59
2022/04/02 10:44:35;;;;;;;;;5.75;4.50;;;;;7.94;34.80;101139.16;4955769;28;45734;-62
2022/04/02 10:47:05;;;;;;;;;4.25;3.75;;;;;7.90;34.87;101142.81;4956339;28;45405;-59
2022/04/02 10:49:39;;;;;;;;;2.00;2.00;;;;;7.96;34.73;101134.66;4955140;28;45190;-59
2022/04/02 10:52:04;;;;;;;;;4.75;3.50;;;;;8.20;35.36;101127.59;4953962;28;45359;-58
2022/04/02 10:54:30;;;;;;;;;4.25;3.25;;;;;8.37;35.68;101153.47;4960627;28;45287;-57
2022/04/02 10:56:56;;;;;;;;;4.50;2.00;;;;;8.35;34.55;101133.25;4962716;28;45551;-55
2022/04/02 10:59:26;;;;;;;;;4.25;2.50;;;;;8.39;35.38;101134.88;4966212;28;47612;-54
2022/04/02 11:01:58;;;;;;;;;5.75;5.00;;;;;8.62;36.72;101137.50;5011767;27;45549;-57
2022/04/02 11:04:52;;;;;;;;;8.75;6.75;;;;;8.56;35.87;101129.75;4978555;28;45341;-53
2022/04/02 11:07:35;;;;;;;;;6.00;5.50;;;;;8.57;34.26;101139.44;4975505;28;45516;-55
2022/04/02 11:10:01;;;;;;;;;5.00;5.00;;;;;8.49;33.73;101142.41;4973720;28;46376;-54
2022/04/02 11:12:45;;;;;;;;;2.00;2.00;;;;;8.52;33.86;101142.28;4975443;28;45300;-57
2022/04/02 11:15:25;;;;;;;;;3.25;3.25;;;;;8.70;33.73;101138.03;4975749;28;45710;-55
2022/04/02 11:17:53;;;;;;;;;2.50;2.50;;;;;8.65;32.28;101139.16;4971725;28;45362;-56
2022/04/02 11:20:22;;;;;;;;;1.75;1.75;;;;;8.86;31.69;101147.13;4974387;28;46085;-63
2022/04/02 11:22:51;;;;;;;;;2.00;2.00;;;;;8.88;32.14;101148.84;4977684;28;45295;-57
2022/04/02 11:25:32;;;;;;;;;1.25;1.25;;;;;8.99;32.04;101151.94;4985455;27;45509;-59
2022/04/02 11:28:12;;;;;;;;;3.00;1.75;;;;;9.06;31.31;101132.19;4974313;28;45264;-62
2022/04/02 11:30:49;;;;;;;;;1.50;1.50;;;;;9.07;32.53;101139.22;4972500;28;45386;-64
2022/04/02 11:33:20;;;;;;;;;2.75;2.75;;;;;9.45;32.46;101143.78;4985458;28;45176;-65
2022/04/02 11:35:45;;;;;;;;;3.50;3.50;;;;;9.33;31.92;101135.47;4971052;28;45257;-60
2022/04/02 11:38:23;;;;;;;;;2.00;2.00;;;;;9.27;31.51;101141.91;4974424;27;45562;-57
2022/04/02 11:41:01;;;;;;;;;2.00;2.00;;;;;9.41;31.62;101139.53;4972433;28;45426;-57
2022/04/02 11:43:37;;;;;;;;;5.25;2.50;;;;;9.34;30.96;101148.69;4972624;28;45600;-57
2022/04/02 11:46:06;;;;;;;;;8.50;3.50;;;;;9.22;29.95;101143.88;4980818;28;45398;-53
2022/04/02 11:48:34;;;;;;;;;2.50;2.50;;;;;8.84;30.83;101148.09;4973436;28;45866;-57